sensor_id;sensor_type;location;lat;lon;timestamp;P1;durP1;ratioP1;P2;durP2;ratioP2
41311;SDS011;27061;41.648;24.568;2024-03-02T00:00:21;15.38;;;5.45;;
41311;SDS011;27061;41.648;24.568;2024-03-02T00:02:49;15.82;;;6.57;;
41311;SDS011;27061;41.648;24.568;2024-03-02T00:05:18;19.17;;;6.88;;
41311;SDS011;27061;41.648;24.568;2024-03-02T00:07:54;19.52;;;7.18;;
41311;SDS011;27061;41.648;24.568;2024-03-02T00:10:25;18.15;;;8.32;;
41311;SDS011;27061;41.648;24.568;2024-03-02T00:13:03;15.13;;;7.38;;
41311;SDS011;27061;41.648;24.568;2024-03-02T00:18:34;25.45;;;9.20;;
41311;SDS011;27061;41.648;24.568;2024-03-02T00:21:02;18.90;;;8.15;;
41311;SDS011;27061;41.648;24.568;2024-03-02T00:23:33;18.67;;;9.30;;
41311;SDS011;27061;41.648;24.568;2024-03-02T00:26:01;17.10;;;8.77;;
41311;SDS011;27061;41.648;24.568;2024-03-02T00:28:33;21.63;;;9.27;;
41311;SDS011;27061;41.648;24.568;2024-03-02T00:33:43;20.55;;;10.77;;
41311;SDS011;27061;41.648;24.568;2024-03-02T00:36:14;17.02;;;9.27;;
41311;SDS011;27061;41.648;24.568;2024-03-02T00:38:49;20.17;;;10.50;;
41311;SDS011;27061;41.648;24.568;2024-03-02T00:41:27;18.55;;;9.82;;
41311;SDS011;27061;41.648;24.568;2024-03-02T00:43:57;28.65;;;10.13;;
41311;SDS011;27061;41.648;24.568;2024-03-02T00:46:38;20.55;;;10.05;;
41311;SDS011;27061;41.648;24.568;2024-03-02T00:49:40;21.73;;;9.68;;
41311;SDS011;27061;41.648;24.568;2024-03-02T00:52:01;15.02;;;9.02;;
41311;SDS011;27061;41.648;24.568;2024-03-02T00:54:30;17.60;;;8.93;;
41311;SDS011;27061;41.648;24.568;2024-03-02T00:56:57;19.25;;;8.98;;
41311;SDS011;27061;41.648;24.568;2024-03-02T00:59:25;20.85;;;9.27;;
41311;SDS011;27061;41.648;24.568;2024-03-02T01:01:53;20.63;;;9.38;;
41311;SDS011;27061;41.648;24.568;2024-03-02T01:04:21;18.08;;;9.63;;
41311;SDS011;27061;41.648;24.568;2024-03-02T01:06:48;16.77;;;9.60;;
41311;SDS011;27061;41.648;24.568;2024-03-02T01:09:15;26.45;;;9.50;;
41311;SDS011;27061;41.648;24.568;2024-03-02T01:11:45;18.67;;;10.68;;
41311;SDS011;27061;41.648;24.568;2024-03-02T01:14:12;20.90;;;10.88;;
41311;SDS011;27061;41.648;24.568;2024-03-02T01:16:39;29.30;;;13.15;;
41311;SDS011;27061;41.648;24.568;2024-03-02T01:19:07;21.40;;;10.68;;
41311;SDS011;27061;41.648;24.568;2024-03-02T01:21:34;26.23;;;10.40;;
41311;SDS011;27061;41.648;24.568;2024-03-02T01:24:02;18.70;;;10.57;;
41311;SDS011;27061;41.648;24.568;2024-03-02T01:26:29;25.33;;;10.85;;
41311;SDS011;27061;41.648;24.568;2024-03-02T01:28:57;21.58;;;11.05;;
41311;SDS011;27061;41.648;24.568;2024-03-02T01:31:24;20.35;;;10.70;;
41311;SDS011;27061;41.648;24.568;2024-03-02T01:33:52;22.77;;;11.30;;
41311;SDS011;27061;41.648;24.568;2024-03-02T01:36:19;23.17;;;10.20;;
41311;SDS011;27061;41.648;24.568;2024-03-02T01:38:46;20.52;;;9.85;;
41311;SDS011;27061;41.648;24.568;2024-03-02T01:41:14;24.45;;;10.80;;
41311;SDS011;27061;41.648;24.568;2024-03-02T01:43:43;35.05;;;14.10;;
41311;SDS011;27061;41.648;24.568;2024-03-02T01:46:11;18.75;;;9.35;;
41311;SDS011;27061;41.648;24.568;2024-03-02T01:48:38;15.02;;;9.43;;
41311;SDS011;27061;41.648;24.568;2024-03-02T01:51:08;22.27;;;8.93;;
41311;SDS011;27061;41.648;24.568;2024-03-02T01:53:37;17.48;;;8.13;;
41311;SDS011;27061;41.648;24.568;2024-03-02T01:56:05;20.63;;;8.55;;
41311;SDS011;27061;41.648;24.568;2024-03-02T01:58:32;12.50;;;6.00;;
41311;SDS011;27061;41.648;24.568;2024-03-02T02:01:00;13.13;;;7.30;;
41311;SDS011;27061;41.648;24.568;2024-03-02T02:03:28;20.85;;;8.00;;
41311;SDS011;27061;41.648;24.568;2024-03-02T02:05:55;15.07;;;7.43;;
41311;SDS011;27061;41.648;24.568;2024-03-02T02:08:25;10.55;;;6.03;;
41311;SDS011;27061;41.648;24.568;2024-03-02T02:10:52;11.23;;;5.82;;
41311;SDS011;27061;41.648;24.568;2024-03-02T02:13:20;11.07;;;6.40;;
41311;SDS011;27061;41.648;24.568;2024-03-02T02:15:53;9.75;;;5.50;;
41311;SDS011;27061;41.648;24.568;2024-03-02T02:18:31;19.20;;;9.55;;
41311;SDS011;27061;41.648;24.568;2024-03-02T02:20:58;17.52;;;9.38;;
41311;SDS011;27061;41.648;24.568;2024-03-02T02:23:26;20.80;;;6.82;;
41311;SDS011;27061;41.648;24.568;2024-03-02T02:25:53;16.80;;;8.18;;
41311;SDS011;27061;41.648;24.568;2024-03-02T02:28:21;20.13;;;9.18;;
41311;SDS011;27061;41.648;24.568;2024-03-02T02:30:48;13.32;;;6.38;;
41311;SDS011;27061;41.648;24.568;2024-03-02T02:33:16;5.28;;;4.05;;
41311;SDS011;27061;41.648;24.568;2024-03-02T02:35:46;12.35;;;7.43;;
41311;SDS011;27061;41.648;24.568;2024-03-02T02:38:13;5.80;;;4.00;;
41311;SDS011;27061;41.648;24.568;2024-03-02T02:40:41;8.25;;;4.30;;
41311;SDS011;27061;41.648;24.568;2024-03-02T02:43:08;4.13;;;3.42;;
41311;SDS011;27061;41.648;24.568;2024-03-02T02:45:35;5.07;;;4.40;;
41311;SDS011;27061;41.648;24.568;2024-03-02T02:48:03;8.88;;;5.18;;
41311;SDS011;27061;41.648;24.568;2024-03-02T02:50:30;9.45;;;5.63;;
41311;SDS011;27061;41.648;24.568;2024-03-02T02:52:58;15.23;;;6.97;;
41311;SDS011;27061;41.648;24.568;2024-03-02T02:55:26;16.60;;;10.15;;
41311;SDS011;27061;41.648;24.568;2024-03-02T02:57:56;28.20;;;12.23;;
41311;SDS011;27061;41.648;24.568;2024-03-02T03:00:23;15.15;;;7.47;;
41311;SDS011;27061;41.648;24.568;2024-03-02T03:02:51;12.50;;;7.60;;
41311;SDS011;27061;41.648;24.568;2024-03-02T03:05:19;12.80;;;6.80;;
41311;SDS011;27061;41.648;24.568;2024-03-02T03:07:46;10.43;;;6.95;;
41311;SDS011;27061;41.648;24.568;2024-03-02T03:13:05;9.48;;;7.32;;
41311;SDS011;27061;41.648;24.568;2024-03-02T03:15:35;9.00;;;4.88;;
41311;SDS011;27061;41.648;24.568;2024-03-02T03:18:05;13.13;;;5.72;;
41311;SDS011;27061;41.648;24.568;2024-03-02T03:20:34;7.00;;;5.63;;
41311;SDS011;27061;41.648;24.568;2024-03-02T03:23:02;7.35;;;5.20;;
41311;SDS011;27061;41.648;24.568;2024-03-02T03:25:30;9.20;;;5.80;;
41311;SDS011;27061;41.648;24.568;2024-03-02T03:27:58;13.60;;;6.45;;
41311;SDS011;27061;41.648;24.568;2024-03-02T03:30:25;5.82;;;4.68;;
41311;SDS011;27061;41.648;24.568;2024-03-02T03:32:53;11.13;;;6.15;;
41311;SDS011;27061;41.648;24.568;2024-03-02T03:35:20;7.93;;;6.25;;
41311;SDS011;27061;41.648;24.568;2024-03-02T03:37:48;9.05;;;4.88;;
41311;SDS011;27061;41.648;24.568;2024-03-02T03:40:15;8.73;;;5.63;;
41311;SDS011;27061;41.648;24.568;2024-03-02T03:42:43;12.30;;;6.15;;
41311;SDS011;27061;41.648;24.568;2024-03-02T03:45:11;10.05;;;6.00;;
41311;SDS011;27061;41.648;24.568;2024-03-02T03:47:38;6.85;;;5.53;;
41311;SDS011;27061;41.648;24.568;2024-03-02T03:50:06;12.68;;;6.35;;
41311;SDS011;27061;41.648;24.568;2024-03-02T03:52:36;12.52;;;6.03;;
41311;SDS011;27061;41.648;24.568;2024-03-02T03:55:03;10.73;;;5.90;;
41311;SDS011;27061;41.648;24.568;2024-03-02T03:57:32;9.20;;;6.57;;
41311;SDS011;27061;41.648;24.568;2024-03-02T04:00:03;8.70;;;5.63;;
41311;SDS011;27061;41.648;24.568;2024-03-02T04:02:40;17.08;;;6.32;;
41311;SDS011;27061;41.648;24.568;2024-03-02T04:05:07;7.82;;;5.93;;
41311;SDS011;27061;41.648;24.568;2024-03-02T04:07:38;11.65;;;6.28;;
41311;SDS011;27061;41.648;24.568;2024-03-02T04:10:08;8.88;;;6.25;;
41311;SDS011;27061;41.648;24.568;2024-03-02T04:12:39;8.07;;;6.38;;
41311;SDS011;27061;41.648;24.568;2024-03-02T04:15:09;12.13;;;7.07;;
41311;SDS011;27061;41.648;24.568;2024-03-02T04:17:36;11.10;;;7.38;;
41311;SDS011;27061;41.648;24.568;2024-03-02T04:20:04;10.45;;;6.45;;
41311;SDS011;27061;41.648;24.568;2024-03-02T04:22:35;9.95;;;6.90;;
41311;SDS011;27061;41.648;24.568;2024-03-02T04:25:03;9.80;;;7.78;;
41311;SDS011;27061;41.648;24.568;2024-03-02T04:27:31;9.63;;;7.10;;
41311;SDS011;27061;41.648;24.568;2024-03-02T04:30:00;11.52;;;6.32;;
41311;SDS011;27061;41.648;24.568;2024-03-02T04:32:27;14.38;;;7.82;;
41311;SDS011;27061;41.648;24.568;2024-03-02T04:34:55;15.80;;;6.78;;
41311;SDS011;27061;41.648;24.568;2024-03-02T04:37:22;10.77;;;7.43;;
41311;SDS011;27061;41.648;24.568;2024-03-02T04:39:49;25.80;;;8.02;;
41311;SDS011;27061;41.648;24.568;2024-03-02T04:42:17;15.05;;;7.75;;
41311;SDS011;27061;41.648;24.568;2024-03-02T04:44:44;13.20;;;6.97;;
41311;SDS011;27061;41.648;24.568;2024-03-02T04:47:12;16.35;;;6.40;;
41311;SDS011;27061;41.648;24.568;2024-03-02T04:49:39;16.98;;;6.45;;
41311;SDS011;27061;41.648;24.568;2024-03-02T04:52:07;10.48;;;6.15;;
41311;SDS011;27061;41.648;24.568;2024-03-02T04:54:34;22.15;;;7.47;;
41311;SDS011;27061;41.648;24.568;2024-03-02T04:57:24;9.93;;;6.70;;
41311;SDS011;27061;41.648;24.568;2024-03-02T04:59:51;21.13;;;7.80;;
41311;SDS011;27061;41.648;24.568;2024-03-02T05:02:21;8.70;;;6.25;;
41311;SDS011;27061;41.648;24.568;2024-03-02T05:04:48;7.63;;;5.97;;
41311;SDS011;27061;41.648;24.568;2024-03-02T05:07:16;15.93;;;7.85;;
41311;SDS011;27061;41.648;24.568;2024-03-02T05:09:43;20.33;;;6.45;;
41311;SDS011;27061;41.648;24.568;2024-03-02T05:12:11;18.40;;;7.78;;
41311;SDS011;27061;41.648;24.568;2024-03-02T05:14:56;52.17;;;10.68;;
41311;SDS011;27061;41.648;24.568;2024-03-02T05:17:24;25.90;;;7.28;;
41311;SDS011;27061;41.648;24.568;2024-03-02T05:19:51;22.80;;;6.90;;
41311;SDS011;27061;41.648;24.568;2024-03-02T05:22:19;9.20;;;6.85;;
41311;SDS011;27061;41.648;24.568;2024-03-02T05:24:46;20.95;;;7.22;;
41311;SDS011;27061;41.648;24.568;2024-03-02T05:27:13;7.50;;;6.18;;
41311;SDS011;27061;41.648;24.568;2024-03-02T05:29:44;19.40;;;6.97;;
41311;SDS011;27061;41.648;24.568;2024-03-02T05:32:11;9.70;;;6.30;;
41311;SDS011;27061;41.648;24.568;2024-03-02T05:34:39;36.50;;;7.93;;
41311;SDS011;27061;41.648;24.568;2024-03-02T05:37:08;12.77;;;8.30;;
41311;SDS011;27061;41.648;24.568;2024-03-02T05:39:38;11.48;;;6.95;;
41311;SDS011;27061;41.648;24.568;2024-03-02T05:42:05;10.70;;;6.93;;
41311;SDS011;27061;41.648;24.568;2024-03-02T05:44:33;43.78;;;12.23;;
41311;SDS011;27061;41.648;24.568;2024-03-02T05:47:00;37.80;;;11.93;;
41311;SDS011;27061;41.648;24.568;2024-03-02T05:49:28;19.50;;;8.38;;
41311;SDS011;27061;41.648;24.568;2024-03-02T05:51:58;17.65;;;7.95;;
41311;SDS011;27061;41.648;24.568;2024-03-02T05:54:25;28.48;;;7.95;;
41311;SDS011;27061;41.648;24.568;2024-03-02T05:56:52;9.77;;;6.40;;
41311;SDS011;27061;41.648;24.568;2024-03-02T05:59:20;15.75;;;6.45;;
41311;SDS011;27061;41.648;24.568;2024-03-02T06:01:48;17.55;;;13.88;;
41311;SDS011;27061;41.648;24.568;2024-03-02T06:04:19;8.77;;;6.30;;
41311;SDS011;27061;41.648;24.568;2024-03-02T06:06:46;14.80;;;7.05;;
41311;SDS011;27061;41.648;24.568;2024-03-02T06:09:24;14.07;;;6.85;;
41311;SDS011;27061;41.648;24.568;2024-03-02T06:11:51;8.15;;;6.72;;
41311;SDS011;27061;41.648;24.568;2024-03-02T06:14:21;20.92;;;6.07;;
41311;SDS011;27061;41.648;24.568;2024-03-02T06:16:49;9.60;;;6.85;;
41311;SDS011;27061;41.648;24.568;2024-03-02T06:19:19;25.38;;;7.03;;
41311;SDS011;27061;41.648;24.568;2024-03-02T06:21:46;30.67;;;8.05;;
41311;SDS011;27061;41.648;24.568;2024-03-02T06:24:17;29.60;;;7.25;;
41311;SDS011;27061;41.648;24.568;2024-03-02T06:26:44;10.80;;;6.93;;
41311;SDS011;27061;41.648;24.568;2024-03-02T06:29:11;5.93;;;5.32;;
41311;SDS011;27061;41.648;24.568;2024-03-02T06:31:38;12.38;;;7.35;;
41311;SDS011;27061;41.648;24.568;2024-03-02T06:34:06;26.85;;;5.63;;
41311;SDS011;27061;41.648;24.568;2024-03-02T06:36:35;8.40;;;5.25;;
41311;SDS011;27061;41.648;24.568;2024-03-02T06:39:02;19.80;;;7.00;;
41311;SDS011;27061;41.648;24.568;2024-03-02T06:41:29;4.30;;;3.90;;
41311;SDS011;27061;41.648;24.568;2024-03-02T06:43:57;3.97;;;3.60;;
41311;SDS011;27061;41.648;24.568;2024-03-02T06:46:27;4.57;;;4.13;;
41311;SDS011;27061;41.648;24.568;2024-03-02T06:48:54;4.65;;;4.25;;
41311;SDS011;27061;41.648;24.568;2024-03-02T06:51:21;29.38;;;6.20;;
41311;SDS011;27061;41.648;24.568;2024-03-02T06:53:49;11.38;;;4.93;;
41311;SDS011;27061;41.648;24.568;2024-03-02T06:56:16;17.33;;;5.50;;
41311;SDS011;27061;41.648;24.568;2024-03-02T06:58:44;6.13;;;4.45;;
41311;SDS011;27061;41.648;24.568;2024-03-02T07:01:11;5.22;;;4.30;;
41311;SDS011;27061;41.648;24.568;2024-03-02T07:03:38;4.00;;;3.63;;
41311;SDS011;27061;41.648;24.568;2024-03-02T07:06:08;4.32;;;3.63;;
41311;SDS011;27061;41.648;24.568;2024-03-02T07:08:35;8.65;;;4.40;;
41311;SDS011;27061;41.648;24.568;2024-03-02T07:11:03;4.03;;;3.53;;
41311;SDS011;27061;41.648;24.568;2024-03-02T07:13:30;3.47;;;3.17;;
41311;SDS011;27061;41.648;24.568;2024-03-02T07:15:58;16.00;;;3.78;;
41311;SDS011;27061;41.648;24.568;2024-03-02T07:18:31;17.77;;;5.25;;
41311;SDS011;27061;41.648;24.568;2024-03-02T07:21:00;18.23;;;4.50;;
41311;SDS011;27061;41.648;24.568;2024-03-02T07:23:28;18.48;;;4.07;;
41311;SDS011;27061;41.648;24.568;2024-03-02T07:25:56;9.85;;;3.53;;
41311;SDS011;27061;41.648;24.568;2024-03-02T07:28:26;29.35;;;3.72;;
41311;SDS011;27061;41.648;24.568;2024-03-02T07:31:00;23.67;;;3.42;;
41311;SDS011;27061;41.648;24.568;2024-03-02T07:35:55;6.38;;;2.80;;
41311;SDS011;27061;41.648;24.568;2024-03-02T07:38:24;24.25;;;3.83;;
41311;SDS011;27061;41.648;24.568;2024-03-02T07:40:51;10.15;;;2.83;;
41311;SDS011;27061;41.648;24.568;2024-03-02T07:43:19;21.08;;;4.97;;
41311;SDS011;27061;41.648;24.568;2024-03-02T07:45:47;17.25;;;2.67;;
41311;SDS011;27061;41.648;24.568;2024-03-02T07:48:17;3.80;;;2.50;;
41311;SDS011;27061;41.648;24.568;2024-03-02T07:50:45;11.77;;;1.90;;
41311;SDS011;27061;41.648;24.568;2024-03-02T07:53:12;8.93;;;2.13;;
41311;SDS011;27061;41.648;24.568;2024-03-02T07:55:41;2.28;;;1.35;;
41311;SDS011;27061;41.648;24.568;2024-03-02T07:58:08;7.07;;;1.58;;
41311;SDS011;27061;41.648;24.568;2024-03-02T08:00:36;1.30;;;1.20;;
41311;SDS011;27061;41.648;24.568;2024-03-02T08:03:03;1.17;;;1.08;;
41311;SDS011;27061;41.648;24.568;2024-03-02T08:05:31;5.93;;;1.65;;
41311;SDS011;27061;41.648;24.568;2024-03-02T08:07:58;9.05;;;1.13;;
41311;SDS011;27061;41.648;24.568;2024-03-02T08:10:26;0.90;;;0.90;;
41311;SDS011;27061;41.648;24.568;2024-03-02T08:12:53;38.10;;;2.88;;
41311;SDS011;27061;41.648;24.568;2024-03-02T08:15:21;4.22;;;1.05;;
41311;SDS011;27061;41.648;24.568;2024-03-02T08:17:49;19.15;;;1.42;;
41311;SDS011;27061;41.648;24.568;2024-03-02T08:20:16;1.75;;;1.00;;
41311;SDS011;27061;41.648;24.568;2024-03-02T08:22:44;20.08;;;2.70;;
41311;SDS011;27061;41.648;24.568;2024-03-02T08:25:12;1.55;;;0.93;;
41311;SDS011;27061;41.648;24.568;2024-03-02T08:27:40;1.17;;;1.00;;
41311;SDS011;27061;41.648;24.568;2024-03-02T08:30:07;31.48;;;1.90;;
41311;SDS011;27061;41.648;24.568;2024-03-02T08:32:37;0.80;;;0.80;;
41311;SDS011;27061;41.648;24.568;2024-03-02T08:35:06;0.63;;;0.63;;
41311;SDS011;27061;41.648;24.568;2024-03-02T08:37:33;2.67;;;0.70;;
41311;SDS011;27061;41.648;24.568;2024-03-02T08:40:01;10.82;;;1.58;;
41311;SDS011;27061;41.648;24.568;2024-03-02T08:42:31;13.23;;;1.30;;
41311;SDS011;27061;41.648;24.568;2024-03-02T08:45:01;1.45;;;0.60;;
41311;SDS011;27061;41.648;24.568;2024-03-02T08:47:28;0.60;;;0.60;;
41311;SDS011;27061;41.648;24.568;2024-03-02T08:49:59;0.70;;;0.70;;
41311;SDS011;27061;41.648;24.568;2024-03-02T08:52:28;4.20;;;1.27;;
41311;SDS011;27061;41.648;24.568;2024-03-02T08:54:55;2.70;;;1.50;;
41311;SDS011;27061;41.648;24.568;2024-03-02T08:57:23;0.60;;;0.60;;
41311;SDS011;27061;41.648;24.568;2024-03-02T08:59:50;0.55;;;0.55;;
41311;SDS011;27061;41.648;24.568;2024-03-02T09:02:23;0.70;;;0.70;;
41311;SDS011;27061;41.648;24.568;2024-03-02T09:04:51;0.80;;;0.80;;
41311;SDS011;27061;41.648;24.568;2024-03-02T09:07:22;0.70;;;0.70;;
41311;SDS011;27061;41.648;24.568;2024-03-02T09:09:49;0.90;;;0.90;;
41311;SDS011;27061;41.648;24.568;2024-03-02T09:12:17;0.82;;;0.82;;
41311;SDS011;27061;41.648;24.568;2024-03-02T09:14:45;1.30;;;1.20;;
41311;SDS011;27061;41.648;24.568;2024-03-02T09:17:13;1.08;;;1.08;;
41311;SDS011;27061;41.648;24.568;2024-03-02T09:19:41;1.20;;;1.10;;
41311;SDS011;27061;41.648;24.568;2024-03-02T09:22:08;6.13;;;1.13;;
41311;SDS011;27061;41.648;24.568;2024-03-02T09:24:36;0.50;;;0.50;;
41311;SDS011;27061;41.648;24.568;2024-03-02T09:27:04;0.60;;;0.60;;
41311;SDS011;27061;41.648;24.568;2024-03-02T09:29:32;0.70;;;0.70;;
41311;SDS011;27061;41.648;24.568;2024-03-02T09:32:00;0.85;;;0.80;;
41311;SDS011;27061;41.648;24.568;2024-03-02T09:34:29;1.08;;;0.90;;
41311;SDS011;27061;41.648;24.568;2024-03-02T09:36:57;0.70;;;0.70;;
41311;SDS011;27061;41.648;24.568;2024-03-02T09:39:25;1.85;;;0.60;;
41311;SDS011;27061;41.648;24.568;2024-03-02T09:41:52;0.63;;;0.63;;
41311;SDS011;27061;41.648;24.568;2024-03-02T09:44:21;0.52;;;0.52;;
41311;SDS011;27061;41.648;24.568;2024-03-02T09:46:49;0.73;;;0.68;;
41311;SDS011;27061;41.648;24.568;2024-03-02T09:49:16;0.70;;;0.70;;
41311;SDS011;27061;41.648;24.568;2024-03-02T09:51:46;1.33;;;0.90;;
41311;SDS011;27061;41.648;24.568;2024-03-02T09:54:16;0.80;;;0.80;;
41311;SDS011;27061;41.648;24.568;2024-03-02T09:56:49;2.72;;;0.90;;
41311;SDS011;27061;41.648;24.568;2024-03-02T09:59:18;0.50;;;0.50;;
41311;SDS011;27061;41.648;24.568;2024-03-02T10:01:57;0.98;;;0.80;;
41311;SDS011;27061;41.648;24.568;2024-03-02T10:04:26;0.52;;;0.52;;
41311;SDS011;27061;41.648;24.568;2024-03-02T10:07:13;0.88;;;0.88;;
41311;SDS011;27061;41.648;24.568;2024-03-02T10:09:42;0.50;;;0.50;;
41311;SDS011;27061;41.648;24.568;2024-03-02T10:12:12;1.45;;;0.82;;
41311;SDS011;27061;41.648;24.568;2024-03-02T10:14:44;0.50;;;0.50;;
41311;SDS011;27061;41.648;24.568;2024-03-02T10:17:12;1.10;;;0.73;;
41311;SDS011;27061;41.648;24.568;2024-03-02T10:19:40;0.80;;;0.80;;
41311;SDS011;27061;41.648;24.568;2024-03-02T10:22:08;0.60;;;0.60;;
41311;SDS011;27061;41.648;24.568;2024-03-02T10:24:38;1.45;;;0.70;;
41311;SDS011;27061;41.648;24.568;2024-03-02T10:27:10;1.55;;;0.70;;
41311;SDS011;27061;41.648;24.568;2024-03-02T10:29:42;0.77;;;0.77;;
41311;SDS011;27061;41.648;24.568;2024-03-02T10:32:12;0.60;;;0.60;;
41311;SDS011;27061;41.648;24.568;2024-03-02T10:34:40;5.60;;;0.85;;
41311;SDS011;27061;41.648;24.568;2024-03-02T10:37:08;0.52;;;0.52;;
41311;SDS011;27061;41.648;24.568;2024-03-02T10:39:37;0.63;;;0.63;;
41311;SDS011;27061;41.648;24.568;2024-03-02T10:42:07;1.98;;;0.80;;
41311;SDS011;27061;41.648;24.568;2024-03-02T10:44:36;0.55;;;0.55;;
41311;SDS011;27061;41.648;24.568;2024-03-02T10:47:04;0.80;;;0.80;;
41311;SDS011;27061;41.648;24.568;2024-03-02T10:49:32;2.22;;;0.60;;
41311;SDS011;27061;41.648;24.568;2024-03-02T10:52:00;0.60;;;0.60;;
41311;SDS011;27061;41.648;24.568;2024-03-02T10:54:29;0.90;;;0.40;;
41311;SDS011;27061;41.648;24.568;2024-03-02T10:57:04;0.40;;;0.40;;
41311;SDS011;27061;41.648;24.568;2024-03-02T10:59:34;0.50;;;0.50;;
41311;SDS011;27061;41.648;24.568;2024-03-02T11:02:03;0.65;;;0.30;;
41311;SDS011;27061;41.648;24.568;2024-03-02T11:04:32;0.47;;;0.43;;
41311;SDS011;27061;41.648;24.568;2024-03-02T11:07:02;0.20;;;0.20;;
41311;SDS011;27061;41.648;24.568;2024-03-02T11:09:34;4.72;;;0.60;;
41311;SDS011;27061;41.648;24.568;2024-03-02T11:12:09;1.95;;;0.40;;
41311;SDS011;27061;41.648;24.568;2024-03-02T11:14:42;0.30;;;0.30;;
41311;SDS011;27061;41.648;24.568;2024-03-02T11:17:13;1.55;;;0.50;;
41311;SDS011;27061;41.648;24.568;2024-03-02T11:19:45;0.40;;;0.40;;
41311;SDS011;27061;41.648;24.568;2024-03-02T11:22:14;1.85;;;1.30;;
41311;SDS011;27061;41.648;24.568;2024-03-02T11:24:49;3.15;;;2.85;;
41311;SDS011;27061;41.648;24.568;2024-03-02T11:33:01;7.80;;;3.10;;
41311;SDS011;27061;41.648;24.568;2024-03-02T11:35:42;2.78;;;1.08;;
41311;SDS011;27061;41.648;24.568;2024-03-02T11:38:12;0.75;;;0.75;;
41311;SDS011;27061;41.648;24.568;2024-03-02T11:40:40;0.30;;;0.30;;
41311;SDS011;27061;41.648;24.568;2024-03-02T11:43:07;2.35;;;0.57;;
41311;SDS011;27061;41.648;24.568;2024-03-02T11:45:37;1.83;;;0.45;;
41311;SDS011;27061;41.648;24.568;2024-03-02T11:48:13;0.47;;;0.47;;
41311;SDS011;27061;41.648;24.568;2024-03-02T11:50:50;0.47;;;0.47;;
41311;SDS011;27061;41.648;24.568;2024-03-02T11:53:19;1.77;;;0.60;;
41311;SDS011;27061;41.648;24.568;2024-03-02T11:55:50;0.90;;;0.90;;
41311;SDS011;27061;41.648;24.568;2024-03-02T11:58:22;0.65;;;0.60;;
41311;SDS011;27061;41.648;24.568;2024-03-02T12:00:53;0.50;;;0.50;;
41311;SDS011;27061;41.648;24.568;2024-03-02T12:03:23;1.05;;;0.75;;
41311;SDS011;27061;41.648;24.568;2024-03-02T12:05:52;0.40;;;0.40;;
41311;SDS011;27061;41.648;24.568;2024-03-02T12:08:20;2.65;;;0.47;;
41311;SDS011;27061;41.648;24.568;2024-03-02T12:10:58;0.68;;;0.28;;
41311;SDS011;27061;41.648;24.568;2024-03-02T12:13:29;0.40;;;0.40;;
41311;SDS011;27061;41.648;24.568;2024-03-02T12:15:57;0.40;;;0.40;;
41311;SDS011;27061;41.648;24.568;2024-03-02T12:18:25;0.70;;;0.70;;
41311;SDS011;27061;41.648;24.568;2024-03-02T12:20:53;0.50;;;0.50;;
41311;SDS011;27061;41.648;24.568;2024-03-02T12:23:24;1.58;;;0.70;;
41311;SDS011;27061;41.648;24.568;2024-03-02T12:25:52;3.72;;;1.17;;
41311;SDS011;27061;41.648;24.568;2024-03-02T12:28:20;2.53;;;0.75;;
41311;SDS011;27061;41.648;24.568;2024-03-02T12:30:50;4.03;;;0.65;;
41311;SDS011;27061;41.648;24.568;2024-03-02T12:33:18;11.27;;;5.70;;
41311;SDS011;27061;41.648;24.568;2024-03-02T12:35:48;2.17;;;0.95;;
41311;SDS011;27061;41.648;24.568;2024-03-02T12:38:16;0.50;;;0.50;;
41311;SDS011;27061;41.648;24.568;2024-03-02T12:40:43;2.15;;;0.70;;
41311;SDS011;27061;41.648;24.568;2024-03-02T12:43:11;0.40;;;0.40;;
41311;SDS011;27061;41.648;24.568;2024-03-02T12:45:38;0.40;;;0.40;;
41311;SDS011;27061;41.648;24.568;2024-03-02T12:48:06;1.52;;;0.73;;
41311;SDS011;27061;41.648;24.568;2024-03-02T12:50:34;2.92;;;0.60;;
41311;SDS011;27061;41.648;24.568;2024-03-02T12:53:02;0.70;;;0.70;;
41311;SDS011;27061;41.648;24.568;2024-03-02T12:55:29;2.58;;;0.30;;
41311;SDS011;27061;41.648;24.568;2024-03-02T12:57:57;2.08;;;0.35;;
41311;SDS011;27061;41.648;24.568;2024-03-02T13:00:26;0.52;;;0.52;;
41311;SDS011;27061;41.648;24.568;2024-03-02T13:02:54;0.47;;;0.47;;
41311;SDS011;27061;41.648;24.568;2024-03-02T13:05:32;0.30;;;0.30;;
41311;SDS011;27061;41.648;24.568;2024-03-02T13:07:59;0.40;;;0.40;;
41311;SDS011;27061;41.648;24.568;2024-03-02T13:10:30;1.65;;;0.50;;
41311;SDS011;27061;41.648;24.568;2024-03-02T13:12:58;0.32;;;0.32;;
41311;SDS011;27061;41.648;24.568;2024-03-02T13:15:29;1.10;;;0.50;;
41311;SDS011;27061;41.648;24.568;2024-03-02T13:17:58;3.42;;;0.50;;
41311;SDS011;27061;41.648;24.568;2024-03-02T13:20:30;0.60;;;0.60;;
41311;SDS011;27061;41.648;24.568;2024-03-02T13:22:59;3.50;;;0.40;;
41311;SDS011;27061;41.648;24.568;2024-03-02T13:25:26;0.32;;;0.32;;
41311;SDS011;27061;41.648;24.568;2024-03-02T13:27:56;1.92;;;0.30;;
41311;SDS011;27061;41.648;24.568;2024-03-02T13:30:23;0.80;;;0.80;;
41311;SDS011;27061;41.648;24.568;2024-03-02T13:32:51;3.30;;;1.15;;
41311;SDS011;27061;41.648;24.568;2024-03-02T13:35:19;1.58;;;0.47;;
41311;SDS011;27061;41.648;24.568;2024-03-02T13:37:48;4.35;;;0.60;;
41311;SDS011;27061;41.648;24.568;2024-03-02T13:40:17;0.40;;;0.40;;
41311;SDS011;27061;41.648;24.568;2024-03-02T13:42:47;1.45;;;0.30;;
41311;SDS011;27061;41.648;24.568;2024-03-02T13:45:15;6.05;;;0.30;;
41311;SDS011;27061;41.648;24.568;2024-03-02T13:47:42;0.20;;;0.20;;
41311;SDS011;27061;41.648;24.568;2024-03-02T13:50:10;0.30;;;0.20;;
41311;SDS011;27061;41.648;24.568;2024-03-02T13:52:41;2.58;;;0.28;;
41311;SDS011;27061;41.648;24.568;2024-03-02T13:55:08;0.77;;;0.20;;
41311;SDS011;27061;41.648;24.568;2024-03-02T13:57:36;0.22;;;0.20;;
41311;SDS011;27061;41.648;24.568;2024-03-02T14:00:04;0.77;;;0.77;;
41311;SDS011;27061;41.648;24.568;2024-03-02T14:02:38;0.20;;;0.20;;
41311;SDS011;27061;41.648;24.568;2024-03-02T14:05:07;1.50;;;0.50;;
41311;SDS011;27061;41.648;24.568;2024-03-02T14:07:38;1.52;;;1.42;;
41311;SDS011;27061;41.648;24.568;2024-03-02T14:10:05;2.35;;;1.95;;
41311;SDS011;27061;41.648;24.568;2024-03-02T14:12:33;1.20;;;1.05;;
41311;SDS011;27061;41.648;24.568;2024-03-02T14:15:01;0.73;;;0.73;;
41311;SDS011;27061;41.648;24.568;2024-03-02T14:17:31;2.65;;;0.90;;
41311;SDS011;27061;41.648;24.568;2024-03-02T14:19:59;3.13;;;2.83;;
41311;SDS011;27061;41.648;24.568;2024-03-02T14:22:26;2.13;;;1.98;;
41311;SDS011;27061;41.648;24.568;2024-03-02T14:24:54;0.82;;;0.82;;
41311;SDS011;27061;41.648;24.568;2024-03-02T14:27:22;0.50;;;0.50;;
41311;SDS011;27061;41.648;24.568;2024-03-02T14:30:09;0.35;;;0.35;;
41311;SDS011;27061;41.648;24.568;2024-03-02T14:32:39;1.30;;;0.40;;
41311;SDS011;27061;41.648;24.568;2024-03-02T14:35:07;0.10;;;0.10;;
41311;SDS011;27061;41.648;24.568;2024-03-02T14:37:38;0.17;;;0.17;;
41311;SDS011;27061;41.648;24.568;2024-03-02T14:40:09;0.20;;;0.20;;
41311;SDS011;27061;41.648;24.568;2024-03-02T14:42:37;1.75;;;0.30;;
41311;SDS011;27061;41.648;24.568;2024-03-02T14:45:07;0.35;;;0.20;;
41311;SDS011;27061;41.648;24.568;2024-03-02T14:47:34;0.30;;;0.30;;
41311;SDS011;27061;41.648;24.568;2024-03-02T14:50:03;0.28;;;0.28;;
41311;SDS011;27061;41.648;24.568;2024-03-02T14:52:34;1.25;;;0.50;;
41311;SDS011;27061;41.648;24.568;2024-03-02T14:55:02;0.40;;;0.40;;